x

Fripp Nearshore (frp 2) (41033) Weather Station

7:08pm - Fri 27th May 2016 All times are EDT. -4 hours from GMT.

  • Wind
    18mph, 20mph gusts
  • Sea Temp 77°f
  • Air Temp 76°f
  • Sea Pressure 1017.4mb
  • Fripp Nearshore (frp 2)
  • Fripp Nearshore (frp 2)

More Historic Weather Station data

Upgrade to MSW Pro to gain access to the past 30 days of data for over 8000 Wavebouys and Weather Stations around the globe.

Join Pro

Comparision Forecast

View Surf forecast
   
Fri 05/27 7:08pm 18 20 mph 1017.4mb 77f 76f
6:08pm 16 20 mph 1017.8mb 77f 77f
5:08pm 16 20 mph 1018mb 77f 76f
4:08pm 13 20 mph 1018.3mb 77f 76f
3:08pm 13 20 mph 1019mb 77f 76f
2:08pm 13 18 mph 1019.3mb 77f 76f
1:08pm 11 16 mph 1019.5mb 76f 76f
12:08pm 11 13 mph 1020.2mb 76f 76f
11:08am 11 16 mph 1019.7mb 76f 76f
10:08am 13 18 mph 1019.8mb 76f 76f
9:08am 11 13 mph 1019.8mb 76f 76f
8:08am 9 11 mph 1020mb 76f 77f
7:08am 7 11 mph 1019.5mb 76f 76f
6:08am 2 4 mph 1019.3mb 76f 75f
5:08am 7 9 mph 1019mb 76f 76f
4:08am 7 11 mph 1018.9mb 76f 76f
3:08am 13 16 mph 1018.2mb 76f 76f
2:08am 13 18 mph 1018.6mb 77f 76f
1:08am 11 16 mph 1019.4mb 76f 76f
12:08am 11 16 mph 1019.9mb 77f 77f
Thu 05/26 11:08pm 13 16 mph 1020.4mb 77f 77f
10:08pm 13 16 mph 1020mb 78f 77f
9:08pm 9 13 mph 1019.6mb 78f 76f
8:08pm 11 16 mph 1019.3mb 79f 77f
7:08pm 13 16 mph 1019.1mb 79f 77f
6:08pm 11 13 mph 1019.5mb 80f 77f
5:08pm 11 13 mph 1020.3mb 79f 77f
4:08pm 7 9 mph 1021mb 79f 77f
3:08pm 4 7 mph 1021.4mb 78f 77f
2:08pm 7 9 mph 1021.4mb 78f 77f
1:08pm 7 9 mph 1022.1mb 77f 77f
12:08pm 7 9 mph 1022.5mb 77f 77f
11:08am 4 7 mph 1022.9mb 77f 77f
10:08am 2 7 mph 1022.7mb 76f 77f
9:08am 4 7 mph 1022.7mb 76f 77f
8:08am 7 9 mph 1022.3mb 76f 76f
7:08am 9 11 mph 1022.1mb 76f 76f
6:08am 9 13 mph 1021.6mb 76f 76f
5:08am 11 16 mph 1021.4mb 77f 76f
4:08am 11 13 mph 1021.2mb 76f 76f
3:08am 11 13 mph 1021.3mb 77f 76f
2:08am 11 16 mph 1021.4mb 76f 76f
1:08am 11 13 mph 1022mb 76f 76f
12:08am 13 16 mph 1022.4mb 77f 76f
Wed 05/25 11:08pm 11 13 mph 1022.6mb 77f 76f
10:08pm 11 13 mph 1022.2mb 77f 76f
9:08pm 11 13 mph 1021.6mb 77f 76f
8:08pm 11 13 mph 1021.4mb 78f 77f
7:08pm 13 16 mph 1021.3mb 78f 77f
6:08pm 13 16 mph 1021.7mb 79f 77f
5:08pm 11 13 mph 1022.4mb 79f 77f
4:08pm 9 13 mph 1022.8mb 79f 77f
3:08pm 9 11 mph 1023.2mb 77f 77f
2:08pm 9 11 mph 1023.7mb 77f 76f
1:08pm 7
mph
1023.8mb 76f 77f
12:08pm 4 7 mph 1024.1mb 76f 77f
11:08am 4 7 mph 1024mb 75f 76f
10:08am 2 4 mph 1024mb 75f 75f
9:08am 2 4 mph 1023.9mb 75f 75f
8:08am 2
mph
1023.4mb 75f 75f
7:08am 4
mph
1022.7mb 75f 75f
6:08am 4 7 mph 1022mb 75f 74f
5:08am 7 9 mph 1021.5mb 75f 75f
4:08am 7 9 mph 1021.6mb 75f 75f
3:08am 4 7 mph 1021.6mb 75f 75f
2:08am 7 9 mph 1021.3mb 75f 75f
1:08am 9 11 mph 1021.4mb 75f 75f
12:08am 7 9 mph 1021.5mb 75f 75f
Tue 05/24 11:08pm 9 11 mph 1021.5mb 75f 75f
10:08pm 9 11 mph 1020.9mb 75f 75f
9:08pm 11 13 mph 1020.4mb 75f 75f
8:08pm 13 16 mph 1020mb 76f 75f
7:08pm 11 16 mph 1019.5mb 76f 75f
6:08pm 13 18 mph 1019.7mb 76f 75f
5:08pm 13 18 mph 1020mb 76f 74f
4:08pm 11 16 mph 1020.2mb 76f 74f
3:08pm 9 11 mph 1020.7mb 76f 74f
12:08pm 9 11 mph 1021.5mb 75f 73f
11:08am 9 11 mph 1020.8mb 75f 73f
10:08am 9 11 mph 1020.6mb 75f 73f
9:08am 9 11 mph 1020.1mb 74f 73f
8:08am 7 11 mph 1019.5mb 74f 73f
7:08am 9 11 mph 1018.5mb 74f 72f
6:08am 9 11 mph 1018.1mb 74f 71f
5:08am 9 11 mph 1017.4mb 75f 72f
4:08am 9 11 mph 1017mb 75f 72f
3:08am 9 11 mph 1016.9mb 75f 73f
2:08am 11 13 mph 1017.1mb 75f 73f
1:08am 9 13 mph 1017.2mb 76f 73f
12:08am 9 13 mph 1016.9mb 76f 74f